If you wish to contribute or participate in the discussions about articles you are invited to join SKYbrary as a registered user

 Actions

Columbus Airport

From SKYbrary Wiki

KCSG
Airport
ICAO: KCSG
Summary
Name Columbus Airport
Region North America
Territory United States US.gif
Location Columbus, Georgia
Serving
Coordinates 32° 30' 53.62" N, 84° 56' 25.90" W
Runways
Designator Length Width Surface ROPS
6/24 2133 m6,998.032 ft
46 m150.919 ft
ASP yes/yes
13/31 1218 m3,996.063 ft
46 m150.919 ft
ASP yes/yes


METAR
Observation KCSG 191951Z 08012G20KT 8SM -RA OVC010 17/15 A2965 RMK AO2 RAE20B39 CIG 007V012 SLP038 P0000 T01670150
Station Columbus, Columbus Metropolitan Airport
Date/Time 19 October 2019 19:51:00
Wind direction 80°
Wind speed 12 kts
Lowest cloud amount overcast
Temperature 16.7°C
Dew point 15°C
Humidity 89%
QNH hPa
Weather condition light rain

WX
Tag(s) Cumulonimbus
Tropical Revolving Storm

Columbus Airport

ICAO: KCSG IATA: CSG

Description

Columbus Airport is a public use airport located 6 km3.24 nm
6,000 m
19,685.039 ft
northeast of the central business district of Columbus, a city in Muscogee County, Georgia.

Climatology

Humid “subtropical” climate (Köppen climate classification Cfa) - characterized by hot, humid summers and cool winters. Significant amounts of precipitation occur in all seasons in most areas.

Maps

Terrain

Loading map...

Airport Layout

Loading map...


Accidents & Serious Incidents at or in vicinity of KCSG

None on SKYbrary